createdAt,value
2018-04-28T00:02:32.225Z,10.60
2018-04-28T00:08:42.108Z,10.70
2018-04-28T00:14:47.042Z,10.70
2018-04-28T00:27:24.076Z,10.70
2018-04-28T00:33:31.829Z,10.70
2018-04-28T00:39:52.276Z,10.70
2018-04-28T00:46:19.747Z,10.70
2018-04-28T00:52:28.683Z,10.60
2018-04-28T00:59:03.230Z,10.50
2018-04-28T01:05:10.497Z,10.50
2018-04-28T01:18:10.209Z,9.80
2018-04-28T01:31:14.316Z,9.50
2018-04-28T01:37:52.394Z,9.20
2018-04-28T01:44:11.805Z,8.90
2018-04-28T01:50:17.090Z,8.70
2018-04-28T01:56:37.688Z,8.60
2018-04-28T02:02:49.907Z,8.40
2018-04-28T02:09:09.809Z,8.30
2018-04-28T02:15:34.693Z,8.30
2018-04-28T02:22:06.639Z,8.30
2018-04-28T02:28:33.194Z,8.20
2018-04-28T02:34:55.477Z,8.20
2018-04-28T02:48:00.389Z,8.30
2018-04-28T02:54:07.988Z,8.20
2018-04-28T03:06:51.912Z,8.10
2018-04-28T03:12:57.111Z,8.00
2018-04-28T03:19:18.487Z,7.90
2018-04-28T03:25:39.856Z,7.90
2018-04-28T03:31:48.089Z,7.70
2018-04-28T03:37:58.499Z,7.70
2018-04-28T03:44:05.210Z,7.70
2018-04-28T03:50:16.042Z,7.70
2018-04-28T04:03:09.594Z,7.70
2018-04-28T04:15:54.037Z,7.70
2018-04-28T04:22:03.869Z,7.60
2018-04-28T04:28:08.675Z,7.60
2018-04-28T04:34:14.063Z,7.60
2018-04-28T04:47:29.188Z,7.80
2018-04-28T04:53:40.950Z,8.00
2018-04-28T05:13:31.625Z,8.70
2018-04-28T05:19:39.184Z,8.70
2018-04-28T05:26:00.180Z,9.00
2018-04-28T05:32:14.049Z,9.30
2018-04-28T05:38:40.498Z,9.30
2018-04-28T05:51:52.214Z,9.80
2018-04-28T05:58:12.756Z,9.80
2018-04-28T06:04:43.518Z,10.20
2018-04-28T06:17:48.890Z,11.30
2018-04-28T06:23:53.520Z,12.00
2018-04-28T06:29:57.554Z,12.60
2018-04-28T06:36:01.589Z,13.00
2018-04-28T06:42:05.628Z,13.20
2018-04-28T06:48:09.667Z,13.70
2018-04-28T06:54:13.784Z,13.80
2018-04-28T07:00:17.835Z,14.30
2018-04-28T07:06:23.060Z,14.60
2018-04-28T07:12:27.364Z,14.60
2018-04-28T07:18:31.399Z,14.80
2018-04-28T07:24:36.233Z,15.30
2018-04-28T07:30:40.487Z,15.30
2018-04-28T07:36:44.594Z,15.40
2018-04-28T07:42:48.854Z,15.90
2018-04-28T07:48:54.442Z,16.60
2018-04-28T07:54:58.773Z,16.60
2018-04-28T08:01:02.874Z,17.10
2018-04-28T08:07:07.015Z,17.50
2018-04-28T08:13:11.159Z,18.10
2018-04-28T08:19:16.053Z,18.30
2018-04-28T08:25:20.240Z,18.20
2018-04-28T08:31:24.485Z,18.50
2018-04-28T08:37:29.349Z,18.00
2018-04-28T08:43:33.502Z,18.00
2018-04-28T08:49:37.602Z,18.00
2018-04-28T08:55:42.499Z,17.90
2018-04-28T09:01:47.318Z,17.70
2018-04-28T09:07:51.377Z,17.70
2018-04-28T09:13:55.842Z,17.70
2018-04-28T09:20:00.210Z,17.80
2018-04-28T09:26:04.647Z,17.50
2018-04-28T09:32:08.992Z,17.50
2018-04-28T09:38:13.354Z,17.50
2018-04-28T09:44:17.726Z,17.80
2018-04-28T09:50:22.715Z,18.30
2018-04-28T09:56:27.227Z,18.80
2018-04-28T10:02:31.609Z,19.50
2018-04-28T10:08:35.975Z,19.90
2018-04-28T10:14:40.333Z,20.20
2018-04-28T10:20:44.685Z,20.70
2018-04-28T10:26:49.253Z,21.00
2018-04-28T10:32:53.726Z,20.60
2018-04-28T10:38:58.094Z,21.30
2018-04-28T10:45:03.287Z,21.70
2018-04-28T10:51:07.663Z,21.70
2018-04-28T10:57:12.789Z,23.30
2018-04-28T11:03:17.143Z,23.20
2018-04-28T11:09:22.494Z,22.50
2018-04-28T11:15:26.870Z,22.50
2018-04-28T11:21:31.222Z,22.40
2018-04-28T11:27:35.579Z,23.50
2018-04-28T11:33:40.259Z,23.00
2018-04-28T11:39:44.620Z,23.40
2018-04-28T11:45:49.044Z,23.00
2018-04-28T11:51:53.460Z,23.10
2018-04-28T11:57:58.623Z,24.90
2018-04-28T12:04:03.071Z,24.80
2018-04-28T12:10:07.424Z,24.60
2018-04-28T12:16:11.774Z,24.40
2018-04-28T12:22:16.979Z,24.60
2018-04-28T12:28:22.367Z,24.00
2018-04-28T12:34:26.758Z,24.00
2018-04-28T12:40:31.138Z,24.50
2018-04-28T12:46:35.488Z,24.60
2018-04-28T12:52:40.617Z,25.70
2018-04-28T12:58:44.980Z,25.70
2018-04-28T13:04:49.577Z,25.80
2018-04-28T13:10:54.766Z,26.20
2018-04-28T13:16:59.126Z,26.10
2018-04-28T13:23:04.474Z,26.40
2018-04-28T13:29:08.874Z,25.80
2018-04-28T13:35:14.036Z,26.40
2018-04-28T13:41:18.496Z,26.40
2018-04-28T13:47:23.175Z,26.00
2018-04-28T13:53:27.527Z,25.20
2018-04-28T13:59:31.994Z,24.80
2018-04-28T14:05:36.341Z,25.10
2018-04-28T14:11:41.465Z,27.00
2018-04-28T14:17:45.876Z,26.90
2018-04-28T14:23:50.398Z,26.70
2018-04-28T14:29:54.922Z,26.30
2018-04-28T14:35:59.372Z,24.30
2018-04-28T14:42:03.737Z,26.00
2018-04-28T14:48:08.867Z,26.20
2018-04-28T14:54:13.252Z,26.20
2018-04-28T15:00:17.607Z,27.50
2018-04-28T15:06:22.102Z,28.10
2018-04-28T15:12:26.463Z,29.60
2018-04-28T15:18:30.845Z,27.50
2018-04-28T15:24:35.288Z,23.80
2018-04-28T15:30:39.651Z,23.00
2018-04-28T15:36:44.775Z,24.40
2018-04-28T15:42:49.125Z,24.30
2018-04-28T15:48:53.677Z,23.70
2018-04-28T15:54:58.075Z,22.60
2018-04-28T16:01:03.192Z,21.70
2018-04-28T16:07:07.559Z,21.70
2018-04-28T16:13:12.028Z,21.10
2018-04-28T16:19:16.393Z,20.80
2018-04-28T16:25:21.556Z,20.90
2018-04-28T16:31:25.943Z,20.90
2018-04-28T16:37:30.292Z,21.00
2018-04-28T16:43:34.655Z,20.90
2018-04-28T16:49:39.044Z,20.90
2018-04-28T16:55:43.401Z,20.80
2018-04-28T17:01:47.855Z,20.40
2018-04-28T17:07:52.249Z,20.00
2018-04-28T17:13:56.640Z,19.70
2018-04-28T17:20:00.986Z,19.30
2018-04-28T17:26:05.346Z,19.00
2018-04-28T17:32:09.826Z,18.60
2018-04-28T17:38:14.196Z,18.10
2018-04-28T17:44:18.685Z,17.80
2018-04-28T17:50:23.221Z,17.50
2018-04-28T17:56:27.572Z,17.30
2018-04-28T18:02:31.943Z,17.10
2018-04-28T18:08:36.303Z,16.90
2018-04-28T18:14:40.693Z,16.60
2018-04-28T18:20:45.031Z,16.40
2018-04-28T18:26:49.521Z,16.20
2018-04-28T18:32:54.123Z,16.20
2018-04-28T18:38:58.551Z,16.10
2018-04-28T18:45:03.705Z,15.90
2018-04-28T18:51:09.649Z,15.80
2018-04-28T18:57:14.092Z,15.80
2018-04-28T19:03:18.456Z,15.80
2018-04-28T19:09:23.400Z,15.70
2018-04-28T19:15:27.779Z,15.70
2018-04-28T19:21:32.139Z,15.70
2018-04-28T19:27:37.276Z,15.60
2018-04-28T19:33:41.638Z,15.60
2018-04-28T19:39:45.996Z,15.60
2018-04-28T19:45:51.287Z,15.50
2018-04-28T19:51:55.718Z,15.70
2018-04-28T19:58:00.132Z,15.60
2018-04-28T20:04:04.535Z,15.60
2018-04-28T20:10:09.071Z,15.50
2018-04-28T20:16:14.284Z,15.50
2018-04-28T20:22:36.566Z,15.40
2018-04-28T20:28:41.677Z,15.20
2018-04-28T20:34:46.058Z,15.20
2018-04-28T20:40:50.439Z,15.20
2018-04-28T20:46:54.864Z,15.10
2018-04-28T20:53:00.000Z,15.00
2018-04-28T20:59:04.355Z,15.00
2018-04-28T21:05:09.475Z,14.80
2018-04-28T21:11:13.933Z,14.80
2018-04-28T21:17:18.305Z,14.60
2018-04-28T21:23:23.436Z,14.20
2018-04-28T21:29:27.795Z,14.20
2018-04-28T21:35:32.158Z,14.00
2018-04-28T21:41:36.532Z,13.80
2018-04-28T21:47:40.930Z,13.70
2018-04-28T21:53:45.287Z,13.50
2018-04-28T21:59:50.019Z,13.40
2018-04-28T22:05:54.720Z,13.40
2018-04-28T22:11:59.099Z,13.50
2018-04-28T22:18:04.257Z,13.60
2018-04-28T22:24:08.606Z,13.60
2018-04-28T22:30:12.973Z,13.80
2018-04-28T22:36:17.344Z,13.80
2018-04-28T22:42:21.699Z,13.90
2018-04-28T22:48:26.216Z,13.90
2018-04-28T22:54:30.733Z,13.90
2018-04-28T23:00:42.495Z,13.80
2018-04-28T23:06:47.382Z,13.80
2018-04-28T23:12:52.071Z,13.80
2018-04-28T23:18:57.266Z,13.60
2018-04-28T23:25:01.799Z,13.60
2018-04-28T23:31:06.156Z,13.60
2018-04-28T23:37:10.526Z,13.70
2018-04-28T23:43:14.888Z,13.70
2018-04-28T23:49:20.053Z,13.70
2018-04-28T23:55:24.610Z,13.70
